Time;durP1;ratioP1;P1;durP2;ratioP2;P2;SDS_P1;SDS_P2;PMS_P1;PMS_P2;Temp;Humidity;BMP_temperature;BMP_pressure;BME280_temperature;BME280_humidity;BME280_pressure;Samples;Min_cycle;Max_cycle;Signal;HPM_P1;HPM_P2
2023/04/30 00:00:56;;;;;;;10.20;6.50;;;9.60;99.90;;;;;;2062032;28;20231;-92
2023/04/30 00:01:57;;;;;;;10.40;6.27;;;11.10;99.90;;;;;;2061633;28;20222;-93
2023/04/30 00:02:58;;;;;;;12.97;7.57;;;11.00;99.90;;;;;;2049336;29;20271;-93
2023/04/30 00:03:59;;;;;;;12.13;6.93;;;9.70;99.90;;;;;;2065249;28;20235;-93
2023/04/30 00:05:00;;;;;;;13.57;7.27;;;10.50;99.90;;;;;;2065719;28;20334;-92
2023/04/30 00:06:02;;;;;;;13.67;7.03;;;11.00;99.90;;;;;;2064571;28;20270;-94
2023/04/30 00:07:03;;;;;;;10.23;6.72;;;11.00;99.90;;;;;;2058048;28;20239;-93
2023/04/30 00:08:04;;;;;;;12.93;8.07;;;10.80;99.90;;;;;;2049892;28;20193;-94
2023/04/30 00:09:05;;;;;;;11.55;7.15;;;10.40;99.90;;;;;;2049540;29;20298;-93
2023/04/30 00:10:09;;;;;;;13.48;7.50;;;9.90;99.90;;;;;;2047155;28;20193;-93
2023/04/30 00:11:10;;;;;;;13.18;7.47;;;10.00;99.90;;;;;;2055727;28;20183;-93
2023/04/30 00:12:11;;;;;;;14.50;7.33;;;11.10;99.90;;;;;;2063894;28;20203;-93
2023/04/30 00:13:12;;;;;;;13.40;7.67;;;11.60;99.90;;;;;;2064240;28;20197;-93
2023/04/30 00:14:13;;;;;;;12.82;6.90;;;11.20;99.90;;;;;;2048733;29;20181;-93
2023/04/30 00:15:14;;;;;;;12.60;7.60;;;11.50;99.90;;;;;;2041152;29;20185;-95
2023/04/30 00:16:15;;;;;;;13.33;7.80;;;11.40;99.90;;;;;;2041719;29;20277;-93
2023/04/30 00:17:16;;;;;;;12.90;7.57;;;11.40;99.90;;;;;;2041103;28;20185;-93
2023/04/30 00:18:18;;;;;;;12.03;7.33;;;10.90;99.90;;;;;;2056570;28;20184;-95
2023/04/30 00:19:18;;;;;;;15.00;8.00;;;9.90;99.90;;;;;;2055922;28;20250;-93
2023/04/30 00:20:19;;;;;;;13.03;7.80;;;11.10;99.90;;;;;;2049339;28;20402;-93
2023/04/30 00:21:20;;;;;;;12.30;7.03;;;9.90;99.90;;;;;;2054681;29;20690;-93
2023/04/30 00:22:21;;;;;;;12.13;6.63;;;9.70;99.90;;;;;;2046567;28;20247;-94
2023/04/30 00:23:22;;;;;;;15.77;8.20;;;9.10;99.90;;;;;;2053965;28;20230;-94
2023/04/30 00:24:23;;;;;;;14.17;7.90;;;10.50;99.90;;;;;;2048210;29;20247;-92
2023/04/30 00:25:23;;;;;;;14.57;7.30;;;11.10;99.90;;;;;;2052298;28;20318;-93
2023/04/30 00:26:24;;;;;;;14.97;8.13;;;9.90;99.90;;;;;;2054775;28;20258;-93
2023/04/30 00:27:25;;;;;;;14.60;7.95;;;10.00;99.90;;;;;;2046961;28;20331;-93
2023/04/30 00:28:26;;;;;;;13.30;8.00;;;10.10;99.90;;;;;;2062162;28;20234;-93
2023/04/30 00:29:27;;;;;;;13.18;7.65;;;10.70;99.90;;;;;;2061062;28;20471;-93
2023/04/30 00:30:28;;;;;;;12.70;7.20;;;10.10;99.90;;;;;;2055274;28;20235;-93
2023/04/30 00:31:30;;;;;;;14.50;7.97;;;11.40;99.90;;;;;;2057279;28;20242;-94
2023/04/30 00:32:30;;;;;;;11.75;6.65;;;11.50;99.90;;;;;;2057400;28;20235;-94
2023/04/30 00:33:32;;;;;;;15.73;8.13;;;10.00;99.90;;;;;;2049111;28;20220;-93
2023/04/30 00:34:32;;;;;;;13.90;7.70;;;11.40;99.90;;;;;;2057149;28;20270;-94
2023/04/30 00:35:33;;;;;;;14.07;7.87;;;10.70;99.90;;;;;;2049389;28;20347;-94
2023/04/30 00:36:34;;;;;;;15.95;9.20;;;10.50;99.90;;;;;;2059454;28;20245;-93
2023/04/30 00:37:35;;;;;;;14.73;8.10;;;10.80;99.90;;;;;;2054989;29;20242;-93
2023/04/30 00:38:36;;;;;;;16.23;8.30;;;9.70;99.90;;;;;;2059845;28;20231;-93
2023/04/30 00:39:37;;;;;;;15.27;8.23;;;10.90;99.90;;;;;;2055960;28;20294;-93
2023/04/30 00:40:43;;;;;;;18.52;9.38;;;9.90;99.90;;;;;;2056055;28;20263;-92
2023/04/30 00:41:43;;;;;;;13.73;8.18;;;11.10;99.90;;;;;;2056017;29;20264;-93
2023/04/30 00:42:44;;;;;;;13.97;8.30;;;9.80;99.90;;;;;;2040503;29;20633;-92
2023/04/30 00:43:46;;;;;;;14.13;8.73;;;10.70;99.90;;;;;;2048669;29;20251;-93
2023/04/30 00:44:46;;;;;;;15.23;7.80;;;9.90;99.90;;;;;;2046334;29;20275;-93
2023/04/30 00:45:47;;;;;;;13.57;7.60;;;9.80;99.90;;;;;;2039577;29;20236;-92
2023/04/30 00:46:48;;;;;;;13.43;7.47;;;10.70;99.90;;;;;;2049461;28;20275;-93
2023/04/30 00:47:49;;;;;;;16.33;8.70;;;9.80;99.90;;;;;;2057641;28;20251;-94
2023/04/30 00:48:50;;;;;;;13.60;7.57;;;11.10;99.90;;;;;;2037946;29;20236;-94
2023/04/30 00:49:51;;;;;;;12.83;7.27;;;10.80;99.90;;;;;;2042234;29;20252;-95
2023/04/30 00:50:51;;;;;;;13.50;7.73;;;10.60;99.90;;;;;;2040007;29;20602;-94
2023/04/30 00:51:53;;;;;;;15.27;8.53;;;10.00;99.90;;;;;;2053545;28;20211;-92
2023/04/30 00:52:54;;;;;;;13.82;8.05;;;10.20;99.90;;;;;;2065104;28;20230;-94
2023/04/30 00:53:55;;;;;;;13.63;7.85;;;10.50;99.90;;;;;;2065485;28;20222;-93
2023/04/30 00:54:56;;;;;;;13.68;8.05;;;10.60;99.90;;;;;;2065081;28;20294;-93
2023/04/30 00:55:59;;;;;;;16.63;8.10;;;9.90;99.90;;;;;;2048212;28;20267;-93
2023/04/30 00:57:01;;;;;;;14.32;8.30;;;11.40;99.90;;;;;;2065107;28;20242;-93
2023/04/30 00:58:02;;;;;;;15.07;7.93;;;10.00;99.90;;;;;;2056262;28;20215;-93
2023/04/30 00:59:03;;;;;;;13.97;8.53;;;10.40;99.90;;;;;;2057717;28;20648;-93
2023/04/30 01:00:08;;;;;;;16.70;8.60;;;10.20;99.90;;;;;;2057240;28;20277;-93
2023/04/30 01:01:09;;;;;;;16.55;9.60;;;9.80;99.90;;;;;;2042653;28;20169;-92
2023/04/30 01:02:11;;;;;;;16.67;8.27;;;9.90;99.90;;;;;;2058316;28;20195;-93
2023/04/30 01:03:13;;;;;;;15.90;7.97;;;9.20;99.90;;;;;;2065429;28;20190;-93
2023/04/30 01:04:14;;;;;;;15.80;8.38;;;9.80;99.90;;;;;;2055848;28;20274;-92
2023/04/30 01:05:15;;;;;;;14.97;8.33;;;11.00;99.90;;;;;;2055443;28;20194;-93
2023/04/30 01:06:16;;;;;;;15.37;8.50;;;10.50;99.90;;;;;;2065006;28;20233;-92
2023/04/30 01:07:17;;;;;;;17.70;9.50;;;11.30;99.90;;;;;;2065257;28;20428;-92
2023/04/30 01:08:18;;;;;;;18.23;9.43;;;9.30;99.90;;;;;;2057486;28;20187;-93
2023/04/30 01:09:19;;;;;;;16.50;9.30;;;10.40;99.90;;;;;;2058488;28;20190;-92
2023/04/30 01:10:33;;;;;;;14.18;8.15;;;10.70;99.90;;;;;;2065396;28;20198;-92
2023/04/30 01:11:45;;;;;;;16.50;8.75;;;9.90;99.90;;;;;;2057894;28;20310;-92
2023/04/30 01:12:56;;;;;;;17.20;8.95;;;10.60;99.90;;;;;;2067989;28;20233;-93
2023/04/30 01:14:26;;;;;;;16.73;9.02;;;10.20;99.90;;;;;;2067832;28;20243;-93
2023/04/30 01:15:37;;;;;;;16.42;8.35;;;10.50;99.90;;;;;;2061416;28;20270;-93
2023/04/30 01:17:17;;;;;;;16.65;9.43;;;10.20;99.90;;;;;;2061764;28;20311;-95
2023/04/30 01:18:27;;;;;;;15.15;8.13;;;9.80;99.90;;;;;;2039823;29;20231;-93
2023/04/30 01:19:47;;;;;;;18.70;9.23;;;10.10;99.90;;;;;;2049823;28;20224;-94
2023/04/30 01:21:04;;;;;;;19.70;9.88;;;10.60;99.90;;;;;;2054685;28;20212;-93
2023/04/30 01:22:26;;;;;;;14.45;8.60;;;9.90;99.90;;;;;;2053616;28;20252;-93
2023/04/30 01:24:15;;;;;;;16.85;9.18;;;9.90;99.90;;;;;;2072907;28;20223;-94
2023/04/30 01:25:53;;;;;;;19.08;9.25;;;9.90;99.90;;;;;;2062012;28;20217;-94
2023/04/30 01:27:36;;;;;;;16.17;8.52;;;9.80;99.90;;;;;;2061123;28;20234;-94
2023/04/30 01:28:38;;;;;;;17.58;8.77;;;9.80;99.90;;;;;;2070079;28;20236;-94
2023/04/30 01:29:41;;;;;;;19.48;10.05;;;10.30;99.90;;;;;;2065961;28;20233;-94
2023/04/30 01:30:45;;;;;;;16.67;9.52;;;10.90;99.90;;;;;;2051030;28;20246;-93
2023/04/30 01:31:47;;;;;;;18.80;9.20;;;9.90;99.90;;;;;;2059737;28;20250;-94
2023/04/30 01:32:47;;;;;;;18.40;9.23;;;10.80;99.90;;;;;;2062456;28;20265;-94
2023/04/30 01:33:48;;;;;;;19.77;10.00;;;11.00;99.90;;;;;;2049481;28;20251;-93
2023/04/30 01:34:49;;;;;;;20.67;10.60;;;10.10;99.90;;;;;;2056448;28;20259;-93
2023/04/30 01:36:11;;;;;;;20.47;10.27;;;9.60;99.90;;;;;;2049051;29;20234;-93
2023/04/30 01:37:28;;;;;;;15.63;9.10;;;9.60;99.90;;;;;;2063013;28;20249;-94
2023/04/30 01:39:33;;;;;;;18.05;9.23;;;9.60;99.90;;;;;;2073455;28;20232;-93
2023/04/30 01:40:43;;;;;;;19.52;10.23;;;9.60;99.90;;;;;;2038160;29;20719;-93
2023/04/30 01:42:28;;;;;;;24.00;10.70;;;9.60;99.90;;;;;;2033111;29;20252;-93
2023/04/30 01:43:45;;;;;;;16.70;9.50;;;9.60;99.90;;;;;;2014770;29;20250;-94
2023/04/30 01:45:10;;;;;;;16.65;9.07;;;10.90;99.90;;;;;;2038288;29;20312;-94
2023/04/30 01:46:28;;;;;;;20.67;10.85;;;9.70;99.90;;;;;;2050279;28;20238;-95
2023/04/30 01:47:52;;;;;;;19.80;10.32;;;9.60;99.90;;;;;;2052384;29;20303;-90
2023/04/30 01:49:05;;;;;;;19.75;10.45;;;10.30;99.90;;;;;;2053886;28;20261;-92
2023/04/30 01:50:29;;;;;;;20.52;9.95;;;9.70;99.90;;;;;;2063970;28;20213;-93
2023/04/30 01:51:47;;;;;;;20.10;11.13;;;10.00;99.90;;;;;;2070120;28;20226;-94
2023/04/30 01:52:52;;;;;;;22.48;10.18;;;9.80;99.90;;;;;;2065759;28;20266;-93
2023/04/30 01:53:57;;;;;;;22.10;12.10;;;9.60;99.90;;;;;;2049924;28;20247;-93
2023/04/30 01:55:20;;;;;;;21.20;10.75;;;9.70;99.90;;;;;;2056058;28;20227;-93
2023/04/30 01:56:39;;;;;;;21.35;11.30;;;9.60;99.90;;;;;;2057323;28;20234;-93
2023/04/30 01:57:56;;;;;;;21.67;10.15;;;9.50;99.90;;;;;;2053082;28;20254;-93
2023/04/30 01:58:58;;;;;;;24.75;10.73;;;9.50;99.90;;;;;;2067405;28;20298;-93
2023/04/30 02:00:00;;;;;;;19.35;10.23;;;10.90;99.90;;;;;;2065912;28;20242;-94
2023/04/30 02:01:00;;;;;;;22.38;12.23;;;9.80;99.90;;;;;;2071071;28;20363;-93
2023/04/30 02:02:03;;;;;;;24.50;10.87;;;9.30;99.90;;;;;;2059255;28;20225;-93
2023/04/30 02:03:04;;;;;;;20.95;11.55;;;9.40;99.90;;;;;;2054841;28;20183;-94
2023/04/30 02:04:04;;;;;;;21.33;11.38;;;10.80;99.90;;;;;;2065158;28;20194;-94
2023/04/30 02:05:06;;;;;;;20.83;11.17;;;11.00;99.90;;;;;;2066371;28;20293;-93
2023/04/30 02:06:07;;;;;;;22.55;11.38;;;9.30;99.90;;;;;;2058233;28;20215;-93
2023/04/30 02:07:07;;;;;;;21.10;10.57;;;10.40;99.90;;;;;;2050515;29;20252;-94
2023/04/30 02:08:08;;;;;;;22.13;10.50;;;9.50;99.90;;;;;;2050434;29;20177;-93
2023/04/30 02:09:09;;;;;;;20.10;10.80;;;10.90;99.90;;;;;;2047839;29;20220;-93
2023/04/30 02:10:11;;;;;;;20.65;10.90;;;10.80;99.90;;;;;;2056328;28;20198;-93
2023/04/30 02:11:12;;;;;;;22.50;11.85;;;11.00;99.90;;;;;;2056687;28;20191;-93
2023/04/30 02:12:13;;;;;;;22.50;10.57;;;9.60;99.90;;;;;;2055957;29;20223;-94
2023/04/30 02:13:14;;;;;;;20.58;10.30;;;10.70;99.90;;;;;;2049591;29;20196;-93
2023/04/30 02:14:15;;;;;;;23.67;11.97;;;9.60;99.90;;;;;;2049210;29;20176;-94
2023/04/30 02:15:16;;;;;;;23.27;11.70;;;9.70;99.90;;;;;;2046007;28;20192;-93
2023/04/30 02:16:17;;;;;;;21.93;11.00;;;10.80;99.90;;;;;;2058722;28;20179;-94
2023/04/30 02:17:18;;;;;;;23.57;11.67;;;10.30;99.90;;;;;;2055083;28;20195;-94
2023/04/30 02:18:18;;;;;;;20.07;11.20;;;10.70;99.90;;;;;;2053660;28;20652;-93
2023/04/30 02:19:19;;;;;;;19.87;10.20;;;9.70;99.90;;;;;;2056998;28;20182;-95
2023/04/30 02:20:20;;;;;;;22.53;11.30;;;10.90;99.90;;;;;;2065493;28;20245;-94
2023/04/30 02:21:22;;;;;;;23.55;11.45;;;10.60;99.90;;;;;;2065584;28;20241;-94
2023/04/30 02:22:23;;;;;;;22.87;11.67;;;10.30;99.90;;;;;;2066128;28;20231;-93
2023/04/30 02:23:23;;;;;;;25.87;11.73;;;10.10;99.90;;;;;;2057621;28;20239;-93
2023/04/30 02:24:24;;;;;;;21.47;11.20;;;9.40;99.90;;;;;;2057927;28;20234;-93
2023/04/30 02:25:25;;;;;;;23.67;11.97;;;10.20;99.90;;;;;;2061001;28;20266;-93
2023/04/30 02:26:26;;;;;;;23.67;11.90;;;8.90;99.90;;;;;;2063107;28;20253;-93
2023/04/30 02:27:31;;;;;;;20.97;10.33;;;9.30;99.90;;;;;;2064058;28;20245;-93
2023/04/30 02:28:32;;;;;;;22.92;11.30;;;10.20;99.90;;;;;;2066617;28;20246;-95
2023/04/30 02:29:32;;;;;;;22.13;11.17;;;10.50;99.90;;;;;;2061265;28;20226;-94
2023/04/30 02:30:33;;;;;;;23.87;11.83;;;10.00;99.90;;;;;;2063831;28;20290;-92
2023/04/30 02:31:34;;;;;;;25.63;12.20;;;9.50;99.90;;;;;;2055507;29;20245;-92
2023/04/30 02:32:35;;;;;;;22.37;10.77;;;9.80;99.90;;;;;;2060211;28;20230;-93
2023/04/30 02:33:35;;;;;;;21.23;11.23;;;10.90;99.90;;;;;;2064242;28;20248;-92
2023/04/30 02:34:36;;;;;;;22.57;11.17;;;10.80;99.90;;;;;;2058728;28;20242;-92
2023/04/30 02:35:40;;;;;;;21.60;10.97;;;9.80;99.90;;;;;;2058453;28;20302;-93
2023/04/30 02:36:40;;;;;;;19.73;10.98;;;10.30;99.90;;;;;;2054300;28;20250;-93
2023/04/30 02:37:41;;;;;;;18.77;11.10;;;9.70;99.90;;;;;;2047441;28;20227;-93
2023/04/30 02:38:42;;;;;;;23.67;12.23;;;9.70;99.90;;;;;;2056824;28;20308;-93
2023/04/30 02:39:43;;;;;;;23.40;11.90;;;10.00;99.90;;;;;;2049282;29;20260;-92
2023/04/30 02:40:43;;;;;;;21.23;11.10;;;10.40;99.90;;;;;;2049696;29;20239;-93
2023/04/30 02:41:45;;;;;;;24.30;12.68;;;9.40;99.90;;;;;;2057507;28;20250;-92
2023/04/30 02:42:45;;;;;;;22.90;11.90;;;8.20;99.90;;;;;;2057891;28;20232;-92
2023/04/30 02:43:46;;;;;;;23.40;11.73;;;9.80;99.90;;;;;;2057946;28;20228;-94
2023/04/30 02:44:47;;;;;;;23.90;11.93;;;10.60;99.90;;;;;;2058401;28;20219;-95
2023/04/30 02:45:48;;;;;;;23.73;12.23;;;10.60;99.90;;;;;;2071418;28;20213;-95
2023/04/30 02:46:49;;;;;;;21.73;11.00;;;10.10;99.90;;;;;;2058084;28;20235;-94
2023/04/30 02:47:50;;;;;;;18.30;10.40;;;10.80;99.90;;;;;;2057187;28;20230;-93
2023/04/30 02:48:51;;;;;;;28.03;12.70;;;10.90;99.90;;;;;;2049949;29;20255;-94
2023/04/30 02:49:51;;;;;;;21.97;11.57;;;9.80;99.90;;;;;;2063725;28;20261;-93
2023/04/30 02:50:52;;;;;;;23.80;12.00;;;10.40;99.90;;;;;;2063311;28;20322;-93
2023/04/30 02:51:53;;;;;;;24.83;11.57;;;10.80;99.90;;;;;;2054852;28;20235;-92
2023/04/30 02:52:55;;;;;;;21.55;11.00;;;10.10;99.90;;;;;;2056578;28;20231;-94
2023/04/30 02:53:55;;;;;;;20.75;11.35;;;9.50;99.90;;;;;;2054204;28;20234;-93
2023/04/30 02:54:58;;;;;;;21.80;11.93;;;11.10;99.90;;;;;;2055358;28;20294;-93
2023/04/30 02:55:58;;;;;;;24.23;11.48;;;10.40;99.90;;;;;;2055074;28;20262;-93
2023/04/30 02:56:59;;;;;;;23.10;11.57;;;9.80;99.90;;;;;;2054912;29;20245;-93
2023/04/30 02:58:00;;;;;;;22.40;11.17;;;10.70;99.90;;;;;;2054583;28;20266;-92
2023/04/30 02:59:01;;;;;;;23.53;12.13;;;9.60;99.90;;;;;;2053524;28;20254;-94
2023/04/30 03:00:03;;;;;;;21.10;11.30;;;11.00;99.90;;;;;;2055122;28;20196;-93
2023/04/30 03:01:04;;;;;;;21.85;11.32;;;9.50;99.90;;;;;;2062137;28;20193;-93
2023/04/30 03:02:06;;;;;;;21.60;11.40;;;10.30;99.90;;;;;;2055106;28;20188;-93
2023/04/30 03:03:06;;;;;;;23.35;11.45;;;10.40;99.90;;;;;;2062578;28;20193;-93
2023/04/30 03:04:07;;;;;;;23.63;12.27;;;9.90;99.90;;;;;;2063171;28;20241;-94
2023/04/30 03:05:10;;;;;;;21.80;11.43;;;10.60;99.90;;;;;;2056718;28;20190;-93
2023/04/30 03:06:10;;;;;;;24.85;11.80;;;9.30;99.90;;;;;;2054754;28;20677;-94
2023/04/30 03:07:11;;;;;;;21.70;11.10;;;10.80;99.90;;;;;;2054581;28;20192;-94
2023/04/30 03:08:12;;;;;;;24.10;11.43;;;9.40;99.90;;;;;;2054343;28;20191;-93
2023/04/30 03:09:14;;;;;;;25.47;13.23;;;9.40;99.90;;;;;;2053630;29;20208;-93
2023/04/30 03:10:15;;;;;;;18.27;10.27;;;10.40;99.90;;;;;;2046585;29;20196;-92
2023/04/30 03:11:15;;;;;;;25.15;13.27;;;9.40;99.90;;;;;;2046295;28;20207;-92
2023/04/30 03:12:16;;;;;;;21.97;12.37;;;10.90;99.90;;;;;;2046173;29;20183;-92
2023/04/30 03:13:18;;;;;;;22.63;11.37;;;10.00;99.90;;;;;;2053575;28;20249;-93
2023/04/30 03:14:19;;;;;;;25.25;12.43;;;9.30;99.90;;;;;;2054400;28;20188;-94
2023/04/30 03:15:20;;;;;;;24.20;12.17;;;9.30;99.90;;;;;;2045579;29;20211;-93
2023/04/30 03:16:21;;;;;;;21.00;11.57;;;9.80;99.90;;;;;;2046711;29;20244;-92
2023/04/30 03:17:23;;;;;;;22.83;11.50;;;9.90;99.90;;;;;;2050617;28;20246;-94
2023/04/30 03:18:24;;;;;;;20.77;11.30;;;10.30;99.90;;;;;;2058872;28;20224;-94
2023/04/30 03:19:25;;;;;;;21.75;11.27;;;9.90;99.90;;;;;;2050965;28;20242;-94
2023/04/30 03:20:26;;;;;;;21.43;11.73;;;10.60;99.90;;;;;;2041276;29;20259;-93
2023/04/30 03:21:26;;;;;;;22.80;12.20;;;9.20;99.90;;;;;;2046750;29;20267;-92
2023/04/30 03:22:27;;;;;;;24.40;13.07;;;10.10;99.90;;;;;;2046117;29;20326;-92
2023/04/30 03:23:29;;;;;;;22.00;12.03;;;10.40;99.90;;;;;;2054087;28;20246;-93
2023/04/30 03:24:29;;;;;;;20.67;11.70;;;9.30;99.90;;;;;;2062008;28;20277;-93
2023/04/30 03:25:30;;;;;;;23.37;11.87;;;9.30;99.90;;;;;;2054588;29;20235;-93
2023/04/30 03:26:31;;;;;;;25.10;11.87;;;9.30;99.90;;;;;;2054055;28;20302;-92
2023/04/30 03:27:32;;;;;;;21.93;12.17;;;10.90;99.90;;;;;;2062513;28;20234;-93
2023/04/30 03:28:34;;;;;;;21.60;11.37;;;10.00;99.90;;;;;;2054170;29;20266;-93
2023/04/30 03:29:35;;;;;;;23.13;12.40;;;9.40;99.90;;;;;;2054940;28;20255;-92
2023/04/30 03:30:35;;;;;;;32.40;14.25;;;10.10;99.90;;;;;;2052578;28;20236;-93
2023/04/30 03:31:36;;;;;;;23.43;12.50;;;10.60;99.90;;;;;;2046620;29;20230;-93
2023/04/30 03:32:37;;;;;;;24.77;12.40;;;9.40;99.90;;;;;;2046288;29;20251;-92
2023/04/30 03:33:38;;;;;;;24.73;11.45;;;10.70;99.90;;;;;;2046702;28;20314;-93
2023/04/30 03:34:39;;;;;;;23.43;12.07;;;10.50;99.90;;;;;;2047095;29;20242;-93
2023/04/30 03:35:40;;;;;;;21.17;11.43;;;10.80;99.90;;;;;;2047449;28;20286;-92
2023/04/30 03:36:40;;;;;;;22.80;12.70;;;10.70;99.90;;;;;;2061899;28;20323;-93
2023/04/30 03:37:41;;;;;;;22.30;11.73;;;9.40;99.90;;;;;;2068394;28;20283;-91
2023/04/30 03:38:42;;;;;;;22.73;12.20;;;10.60;99.90;;;;;;2059566;28;20294;-92
2023/04/30 03:39:43;;;;;;;23.87;12.97;;;9.40;99.90;;;;;;2053844;28;20242;-92
2023/04/30 03:40:43;;;;;;;24.77;12.27;;;9.40;99.90;;;;;;2053777;28;20273;-92
2023/04/30 03:41:44;;;;;;;23.93;12.60;;;10.80;99.90;;;;;;2061511;28;20290;-92
2023/04/30 03:42:45;;;;;;;21.27;11.47;;;9.70;99.90;;;;;;2061499;28;20261;-92
2023/04/30 03:43:46;;;;;;;24.67;12.20;;;10.80;99.90;;;;;;2061994;28;20708;-92
2023/04/30 03:44:47;;;;;;;20.30;11.40;;;9.80;99.90;;;;;;2054222;28;20250;-91
2023/04/30 03:45:48;;;;;;;20.63;11.87;;;9.20;99.90;;;;;;2054346;28;20243;-92
2023/04/30 03:46:49;;;;;;;19.83;12.05;;;9.30;99.90;;;;;;2053719;28;20278;-92
2023/04/30 03:47:51;;;;;;;23.75;12.15;;;10.30;99.90;;;;;;2045090;28;20231;-92
2023/04/30 03:48:52;;;;;;;22.30;11.20;;;9.30;99.90;;;;;;2055871;28;20857;-92
2023/04/30 03:49:53;;;;;;;26.77;13.17;;;9.40;99.90;;;;;;2055054;28;20240;-92
2023/04/30 03:50:54;;;;;;;28.10;12.82;;;9.40;99.90;;;;;;2065153;28;20229;-93
2023/04/30 03:51:56;;;;;;;20.13;11.47;;;9.40;99.90;;;;;;2065801;28;20244;-93
2023/04/30 03:52:57;;;;;;;22.50;11.88;;;10.50;99.90;;;;;;2048125;28;20243;-92
2023/04/30 03:53:58;;;;;;;20.23;11.50;;;9.30;99.90;;;;;;2054595;28;20262;-93
2023/04/30 03:54:58;;;;;;;20.00;11.77;;;9.30;99.90;;;;;;2055456;29;20234;-93
2023/04/30 03:55:59;;;;;;;18.13;10.60;;;10.70;99.90;;;;;;2055319;29;20232;-92
2023/04/30 03:57:03;;;;;;;18.00;10.68;;;9.30;99.90;;;;;;2055273;28;20262;-94
2023/04/30 03:58:04;;;;;;;24.42;12.80;;;9.40;99.90;;;;;;2045098;29;20223;-93
2023/04/30 03:59:05;;;;;;;21.97;12.50;;;10.70;99.90;;;;;;2052588;28;20246;-93
2023/04/30 04:00:08;;;;;;;21.10;12.70;;;9.50;99.90;;;;;;2050800;28;20254;-92
2023/04/30 04:01:09;;;;;;;23.60;12.45;;;9.40;99.90;;;;;;2038161;29;20709;-93
2023/04/30 04:02:09;;;;;;;19.37;12.40;;;9.40;99.90;;;;;;2037066;29;20197;-92
2023/04/30 04:03:11;;;;;;;20.17;11.30;;;10.80;99.90;;;;;;2052732;29;20219;-93
2023/04/30 04:04:12;;;;;;;17.75;10.80;;;10.10;99.90;;;;;;2044725;29;20202;-93
2023/04/30 04:05:13;;;;;;;21.05;11.13;;;9.50;99.90;;;;;;2037329;29;20191;-93
2023/04/30 04:06:14;;;;;;;26.03;11.80;;;9.90;99.90;;;;;;2050055;28;20286;-92
2023/04/30 04:07:15;;;;;;;20.33;11.20;;;9.70;99.90;;;;;;2053542;29;20179;-92
2023/04/30 04:08:16;;;;;;;18.63;11.23;;;10.40;99.90;;;;;;2045093;29;20212;-93
2023/04/30 04:09:16;;;;;;;22.37;12.73;;;10.50;99.90;;;;;;2053389;28;20190;-91
2023/04/30 04:10:17;;;;;;;20.03;11.20;;;9.30;99.90;;;;;;2066631;28;20214;-92
2023/04/30 04:11:18;;;;;;;20.23;11.63;;;10.50;99.90;;;;;;2060878;28;20229;-92
2023/04/30 04:12:18;;;;;;;18.37;10.70;;;9.30;99.90;;;;;;2052815;29;20605;-92
2023/04/30 04:13:20;;;;;;;22.60;11.23;;;9.80;99.90;;;;;;2047958;28;20419;-92
2023/04/30 04:14:21;;;;;;;19.13;10.80;;;9.10;99.90;;;;;;2052940;28;20249;-92
2023/04/30 04:15:22;;;;;;;18.83;10.43;;;9.50;99.90;;;;;;2053086;28;20231;-93
2023/04/30 04:16:23;;;;;;;21.57;10.83;;;9.90;99.90;;;;;;2061321;28;20359;-93
2023/04/30 04:17:23;;;;;;;18.97;10.70;;;10.70;99.90;;;;;;2053104;28;20231;-92
2023/04/30 04:18:24;;;;;;;19.63;10.73;;;9.10;99.90;;;;;;2041327;28;20231;-92
2023/04/30 04:19:26;;;;;;;18.27;10.05;;;8.70;99.90;;;;;;2045558;29;20257;-93
2023/04/30 04:20:28;;;;;;;18.88;10.60;;;10.60;99.90;;;;;;2043717;28;20283;-93
2023/04/30 04:21:30;;;;;;;17.00;10.15;;;10.50;99.90;;;;;;2051968;28;20219;-93
2023/04/30 04:22:30;;;;;;;16.02;9.88;;;10.40;99.90;;;;;;2060676;28;20284;-91
2023/04/30 04:23:32;;;;;;;19.60;10.53;;;9.90;99.90;;;;;;2053440;28;20297;-93
2023/04/30 04:24:34;;;;;;;15.68;10.38;;;9.30;99.90;;;;;;2054165;28;20295;-93
2023/04/30 04:25:34;;;;;;;19.08;10.60;;;9.30;99.90;;;;;;2050027;28;20223;-93
2023/04/30 04:26:36;;;;;;;16.27;9.77;;;10.50;99.90;;;;;;2061336;28;20215;-93
2023/04/30 04:27:37;;;;;;;20.17;10.43;;;10.70;99.90;;;;;;2053406;28;20231;-93
2023/04/30 04:28:38;;;;;;;13.53;9.00;;;10.80;99.90;;;;;;2055502;28;20270;-94
2023/04/30 04:29:39;;;;;;;15.33;10.40;;;10.80;99.90;;;;;;2056402;28;20235;-94
2023/04/30 04:30:42;;;;;;;16.58;9.77;;;10.80;99.90;;;;;;2072838;28;20237;-91
2023/04/30 04:31:43;;;;;;;15.85;9.98;;;10.40;99.90;;;;;;2053811;28;20241;-92
2023/04/30 04:32:49;;;;;;;17.20;9.90;;;9.70;99.90;;;;;;2053121;28;20227;-92
2023/04/30 04:33:56;;;;;;;16.35;10.15;;;10.00;99.90;;;;;;2054117;28;20231;-92
2023/04/30 04:34:58;;;;;;;15.18;9.75;;;9.90;99.90;;;;;;2047556;28;20254;-92
2023/04/30 04:35:58;;;;;;;15.70;9.82;;;9.40;99.90;;;;;;2044716;28;20241;-92
2023/04/30 04:37:00;;;;;;;15.70;9.70;;;9.40;99.90;;;;;;2050420;29;20678;-92
2023/04/30 04:38:01;;;;;;;16.02;9.50;;;10.40;99.90;;;;;;2041385;28;20271;-95
2023/04/30 04:39:02;;;;;;;20.98;15.75;;;10.40;99.90;;;;;;2044957;28;20271;-94
2023/04/30 04:40:04;;;;;;;16.30;9.80;;;9.40;99.90;;;;;;2058065;28;20179;-93
2023/04/30 04:41:04;;;;;;;16.55;10.00;;;9.30;99.90;;;;;;2058119;28;20164;-94
2023/04/30 04:42:05;;;;;;;15.07;9.07;;;9.30;99.90;;;;;;2050474;28;20171;-93
2023/04/30 04:43:06;;;;;;;17.20;10.40;;;9.20;99.90;;;;;;2048826;29;20216;-92
2023/04/30 04:44:07;;;;;;;16.50;9.90;;;10.00;99.90;;;;;;2044144;28;20247;-92
2023/04/30 04:45:08;;;;;;;15.47;9.33;;;9.70;99.90;;;;;;2045236;28;20211;-93
2023/04/30 04:46:10;;;;;;;16.75;9.85;;;9.10;99.90;;;;;;2051150;28;20207;-93
2023/04/30 04:47:11;;;;;;;19.65;10.25;;;10.50;99.90;;;;;;2056669;28;20220;-93
2023/04/30 04:48:12;;;;;;;14.52;9.25;;;10.60;99.90;;;;;;2051212;28;20186;-92
2023/04/30 04:49:13;;;;;;;16.13;9.90;;;8.90;99.90;;;;;;2054077;28;20221;-92
2023/04/30 04:50:14;;;;;;;15.27;9.83;;;10.00;99.90;;;;;;2051297;28;20176;-92
2023/04/30 04:51:15;;;;;;;15.67;9.60;;;8.80;99.90;;;;;;2050654;28;20186;-93
2023/04/30 04:52:15;;;;;;;13.70;8.97;;;10.40;99.90;;;;;;2051384;28;20231;-93
2023/04/30 04:53:16;;;;;;;13.63;8.80;;;10.40;99.90;;;;;;2051494;28;20187;-92
2023/04/30 04:54:17;;;;;;;17.70;9.97;;;8.90;99.90;;;;;;2059856;28;20340;-92
2023/04/30 04:55:18;;;;;;;15.70;9.40;;;10.40;99.90;;;;;;2052267;28;20182;-93
2023/04/30 04:56:18;;;;;;;13.40;8.30;;;9.00;99.90;;;;;;2060635;28;20677;-93
2023/04/30 04:57:19;;;;;;;15.00;8.77;;;9.10;99.90;;;;;;2059125;28;20179;-93
2023/04/30 04:58:20;;;;;;;12.90;9.07;;;10.70;99.90;;;;;;2050987;29;20202;-92
2023/04/30 04:59:20;;;;;;;16.07;8.97;;;10.50;99.90;;;;;;2058956;28;20238;-93
2023/04/30 05:00:22;;;;;;;15.13;9.13;;;9.70;99.90;;;;;;2052751;28;20234;-92
2023/04/30 05:01:22;;;;;;;15.57;10.25;;;8.90;99.90;;;;;;2043196;28;20235;-93
2023/04/30 05:02:23;;;;;;;16.07;9.47;;;10.00;99.90;;;;;;2050537;28;20663;-92
2023/04/30 05:03:25;;;;;;;13.93;9.17;;;9.60;99.90;;;;;;2050697;28;20238;-92
2023/04/30 05:04:27;;;;;;;12.40;8.68;;;8.80;99.90;;;;;;2051169;28;20227;-92
2023/04/30 05:05:27;;;;;;;14.38;8.73;;;8.80;99.90;;;;;;2051714;28;20478;-93
2023/04/30 05:06:28;;;;;;;13.13;8.73;;;10.40;99.90;;;;;;2051092;28;20266;-92
2023/04/30 05:07:29;;;;;;;11.97;7.60;;;9.80;99.90;;;;;;2050546;28;20290;-92
2023/04/30 05:08:30;;;;;;;11.50;7.27;;;10.40;99.90;;;;;;2066888;28;20788;-92
2023/04/30 05:09:30;;;;;;;11.55;8.00;;;10.50;99.90;;;;;;2050654;28;20310;-92
2023/04/30 05:10:31;;;;;;;15.93;8.30;;;9.30;99.90;;;;;;2058623;28;20235;-93
2023/04/30 05:11:32;;;;;;;14.47;8.00;;;10.80;99.90;;;;;;2066833;28;20264;-93
2023/04/30 05:12:33;;;;;;;12.37;8.17;;;9.80;99.90;;;;;;2063420;28;20306;-93
2023/04/30 05:13:33;;;;;;;13.77;8.60;;;10.30;99.90;;;;;;2043220;29;20240;-93
2023/04/30 05:14:36;;;;;;;14.37;8.07;;;10.70;99.90;;;;;;2042259;29;20692;-93
2023/04/30 05:15:37;;;;;;;13.75;8.65;;;11.00;99.90;;;;;;2063711;28;20669;-93
2023/04/30 05:16:37;;;;;;;12.05;7.85;;;10.70;99.90;;;;;;2053611;28;20299;-92
2023/04/30 05:17:38;;;;;;;12.27;7.67;;;10.50;99.90;;;;;;2058145;28;20233;-92
2023/04/30 05:18:39;;;;;;;13.63;8.53;;;10.90;99.90;;;;;;2058503;28;20238;-93
2023/04/30 05:19:39;;;;;;;12.80;7.87;;;11.10;99.90;;;;;;2054260;28;20266;-93
2023/04/30 05:20:40;;;;;;;11.30;7.20;;;11.00;99.90;;;;;;2058646;28;20634;-93
2023/04/30 05:21:41;;;;;;;12.27;7.83;;;9.60;99.90;;;;;;2059020;28;20293;-93
2023/04/30 05:22:42;;;;;;;13.03;7.43;;;10.10;99.90;;;;;;2056271;28;20227;-93
2023/04/30 05:23:43;;;;;;;11.60;7.10;;;11.20;99.90;;;;;;2050613;28;20239;-93
2023/04/30 05:24:44;;;;;;;12.02;7.45;;;10.90;99.90;;;;;;2058543;28;20226;-93